sensor_id;sensor_type;location;lat;lon;timestamp;P1;durP1;ratioP1;P2;durP2;ratioP2
47960;SDS011;33721;48.852;9.936;2022-10-12T00:01:21;36.08;;;16.58;;
47960;SDS011;33721;48.852;9.936;2022-10-12T00:03:47;35.65;;;17.35;;
47960;SDS011;33721;48.852;9.936;2022-10-12T00:06:17;39.00;;;16.08;;
47960;SDS011;33721;48.852;9.936;2022-10-12T00:08:45;33.05;;;15.80;;
47960;SDS011;33721;48.852;9.936;2022-10-12T00:11:16;43.27;;;16.87;;
47960;SDS011;33721;48.852;9.936;2022-10-12T00:13:44;31.20;;;15.50;;
47960;SDS011;33721;48.852;9.936;2022-10-12T00:16:10;35.10;;;16.02;;
47960;SDS011;33721;48.852;9.936;2022-10-12T00:18:38;33.67;;;15.57;;
47960;SDS011;33721;48.852;9.936;2022-10-12T00:23:40;37.25;;;16.52;;
47960;SDS011;33721;48.852;9.936;2022-10-12T00:26:07;37.50;;;15.90;;
47960;SDS011;33721;48.852;9.936;2022-10-12T00:28:41;33.83;;;16.58;;
47960;SDS011;33721;48.852;9.936;2022-10-12T00:31:08;32.78;;;16.45;;
47960;SDS011;33721;48.852;9.936;2022-10-12T00:33:40;41.33;;;16.35;;
47960;SDS011;33721;48.852;9.936;2022-10-12T00:36:25;35.22;;;16.48;;
47960;SDS011;33721;48.852;9.936;2022-10-12T00:38:54;34.47;;;16.30;;
47960;SDS011;33721;48.852;9.936;2022-10-12T00:41:25;30.17;;;15.40;;
47960;SDS011;33721;48.852;9.936;2022-10-12T00:43:55;28.90;;;15.23;;
47960;SDS011;33721;48.852;9.936;2022-10-12T00:49:19;31.95;;;15.55;;
47960;SDS011;33721;48.852;9.936;2022-10-12T00:51:56;41.70;;;16.48;;
47960;SDS011;33721;48.852;9.936;2022-10-12T00:54:26;35.05;;;15.18;;
47960;SDS011;33721;48.852;9.936;2022-10-12T00:56:55;35.50;;;16.40;;
47960;SDS011;33721;48.852;9.936;2022-10-12T00:59:24;37.40;;;16.48;;
47960;SDS011;33721;48.852;9.936;2022-10-12T01:01:54;38.95;;;17.02;;
47960;SDS011;33721;48.852;9.936;2022-10-12T01:04:20;39.33;;;16.33;;
47960;SDS011;33721;48.852;9.936;2022-10-12T01:06:47;37.88;;;16.35;;
47960;SDS011;33721;48.852;9.936;2022-10-12T01:09:13;35.28;;;17.52;;
47960;SDS011;33721;48.852;9.936;2022-10-12T01:11:39;35.67;;;16.40;;
47960;SDS011;33721;48.852;9.936;2022-10-12T01:14:05;34.70;;;16.73;;
47960;SDS011;33721;48.852;9.936;2022-10-12T01:16:32;35.70;;;17.35;;
47960;SDS011;33721;48.852;9.936;2022-10-12T01:21:53;40.08;;;16.20;;
47960;SDS011;33721;48.852;9.936;2022-10-12T01:24:33;36.03;;;15.88;;
47960;SDS011;33721;48.852;9.936;2022-10-12T01:33:04;41.47;;;16.02;;
47960;SDS011;33721;48.852;9.936;2022-10-12T01:35:41;39.03;;;16.05;;
47960;SDS011;33721;48.852;9.936;2022-10-12T01:40:50;37.30;;;16.27;;
47960;SDS011;33721;48.852;9.936;2022-10-12T01:43:39;36.08;;;16.52;;
47960;SDS011;33721;48.852;9.936;2022-10-12T01:48:45;32.08;;;16.33;;
47960;SDS011;33721;48.852;9.936;2022-10-12T01:51:15;33.70;;;16.30;;
47960;SDS011;33721;48.852;9.936;2022-10-12T01:53:43;36.72;;;16.30;;
47960;SDS011;33721;48.852;9.936;2022-10-12T02:02:10;35.85;;;16.63;;
47960;SDS011;33721;48.852;9.936;2022-10-12T02:04:52;36.17;;;16.77;;
47960;SDS011;33721;48.852;9.936;2022-10-12T02:07:41;44.10;;;16.13;;
47960;SDS011;33721;48.852;9.936;2022-10-12T02:10:15;40.30;;;17.88;;
47960;SDS011;33721;48.852;9.936;2022-10-12T02:12:46;37.92;;;17.25;;
47960;SDS011;33721;48.852;9.936;2022-10-12T02:15:14;38.42;;;16.85;;
47960;SDS011;33721;48.852;9.936;2022-10-12T02:17:42;34.53;;;17.42;;
47960;SDS011;33721;48.852;9.936;2022-10-12T02:20:13;39.03;;;17.00;;
47960;SDS011;33721;48.852;9.936;2022-10-12T02:22:41;37.70;;;17.05;;
47960;SDS011;33721;48.852;9.936;2022-10-12T02:25:12;38.22;;;16.02;;
47960;SDS011;33721;48.852;9.936;2022-10-12T02:27:41;42.08;;;17.35;;
47960;SDS011;33721;48.852;9.936;2022-10-12T02:30:10;35.92;;;17.08;;
47960;SDS011;33721;48.852;9.936;2022-10-12T02:32:37;35.00;;;17.33;;
47960;SDS011;33721;48.852;9.936;2022-10-12T02:35:14;35.60;;;18.05;;
47960;SDS011;33721;48.852;9.936;2022-10-12T02:37:53;41.25;;;16.73;;
47960;SDS011;33721;48.852;9.936;2022-10-12T02:43:25;29.77;;;15.55;;
47960;SDS011;33721;48.852;9.936;2022-10-12T02:46:00;29.83;;;14.68;;
47960;SDS011;33721;48.852;9.936;2022-10-12T02:48:28;37.33;;;17.23;;
47960;SDS011;33721;48.852;9.936;2022-10-12T02:50:55;38.78;;;16.65;;
47960;SDS011;33721;48.852;9.936;2022-10-12T02:53:22;40.92;;;17.60;;
47960;SDS011;33721;48.852;9.936;2022-10-12T02:55:49;34.58;;;17.25;;
47960;SDS011;33721;48.852;9.936;2022-10-12T02:58:17;34.78;;;16.17;;
47960;SDS011;33721;48.852;9.936;2022-10-12T03:00:43;37.10;;;17.05;;
47960;SDS011;33721;48.852;9.936;2022-10-12T03:03:09;34.13;;;15.95;;
47960;SDS011;33721;48.852;9.936;2022-10-12T03:05:35;32.60;;;16.45;;
47960;SDS011;33721;48.852;9.936;2022-10-12T03:08:00;37.72;;;16.25;;
47960;SDS011;33721;48.852;9.936;2022-10-12T03:10:26;41.08;;;16.65;;
47960;SDS011;33721;48.852;9.936;2022-10-12T03:12:52;40.90;;;14.73;;
47960;SDS011;33721;48.852;9.936;2022-10-12T03:15:18;34.63;;;14.15;;
47960;SDS011;33721;48.852;9.936;2022-10-12T03:17:44;30.63;;;14.15;;
47960;SDS011;33721;48.852;9.936;2022-10-12T03:20:10;28.88;;;13.82;;
47960;SDS011;33721;48.852;9.936;2022-10-12T03:22:35;47.05;;;14.75;;
47960;SDS011;33721;48.852;9.936;2022-10-12T03:25:01;38.83;;;16.35;;
47960;SDS011;33721;48.852;9.936;2022-10-12T03:27:26;32.75;;;16.92;;
47960;SDS011;33721;48.852;9.936;2022-10-12T03:29:52;32.80;;;16.35;;
47960;SDS011;33721;48.852;9.936;2022-10-12T03:32:18;39.17;;;17.67;;
47960;SDS011;33721;48.852;9.936;2022-10-12T03:34:43;35.90;;;16.88;;
47960;SDS011;33721;48.852;9.936;2022-10-12T03:37:09;35.42;;;17.58;;
47960;SDS011;33721;48.852;9.936;2022-10-12T03:39:34;35.78;;;16.15;;
47960;SDS011;33721;48.852;9.936;2022-10-12T03:42:00;37.58;;;17.13;;
47960;SDS011;33721;48.852;9.936;2022-10-12T03:44:26;38.38;;;16.85;;
47960;SDS011;33721;48.852;9.936;2022-10-12T03:46:51;31.10;;;15.25;;
47960;SDS011;33721;48.852;9.936;2022-10-12T03:49:17;30.50;;;16.10;;
47960;SDS011;33721;48.852;9.936;2022-10-12T03:51:43;34.30;;;16.85;;
47960;SDS011;33721;48.852;9.936;2022-10-12T03:54:08;31.90;;;15.65;;
47960;SDS011;33721;48.852;9.936;2022-10-12T03:56:34;35.35;;;16.08;;
47960;SDS011;33721;48.852;9.936;2022-10-12T03:59:00;41.22;;;16.98;;
47960;SDS011;33721;48.852;9.936;2022-10-12T04:01:25;32.85;;;15.80;;
47960;SDS011;33721;48.852;9.936;2022-10-12T04:03:51;34.53;;;16.20;;
47960;SDS011;33721;48.852;9.936;2022-10-12T04:06:17;35.47;;;16.85;;
47960;SDS011;33721;48.852;9.936;2022-10-12T04:08:43;32.83;;;15.77;;
47960;SDS011;33721;48.852;9.936;2022-10-12T04:11:08;40.05;;;15.90;;
47960;SDS011;33721;48.852;9.936;2022-10-12T04:13:34;25.67;;;14.05;;
47960;SDS011;33721;48.852;9.936;2022-10-12T04:16:00;33.78;;;15.95;;
47960;SDS011;33721;48.852;9.936;2022-10-12T04:18:27;29.30;;;15.30;;
47960;SDS011;33721;48.852;9.936;2022-10-12T04:20:52;243.00;;;20.25;;
47960;SDS011;33721;48.852;9.936;2022-10-12T04:23:18;33.40;;;15.15;;
47960;SDS011;33721;48.852;9.936;2022-10-12T04:25:44;32.90;;;14.40;;
47960;SDS011;33721;48.852;9.936;2022-10-12T04:28:10;33.70;;;15.25;;
47960;SDS011;33721;48.852;9.936;2022-10-12T04:30:36;40.00;;;15.32;;
47960;SDS011;33721;48.852;9.936;2022-10-12T04:33:02;28.75;;;14.68;;
47960;SDS011;33721;48.852;9.936;2022-10-12T04:35:28;28.42;;;15.07;;
47960;SDS011;33721;48.852;9.936;2022-10-12T04:37:54;41.92;;;15.88;;
47960;SDS011;33721;48.852;9.936;2022-10-12T04:40:21;29.58;;;14.75;;
47960;SDS011;33721;48.852;9.936;2022-10-12T04:42:46;32.67;;;15.85;;
47960;SDS011;33721;48.852;9.936;2022-10-12T04:45:12;28.58;;;15.10;;
47960;SDS011;33721;48.852;9.936;2022-10-12T04:47:38;405.23;;;23.40;;
47960;SDS011;33721;48.852;9.936;2022-10-12T04:50:04;32.97;;;14.98;;
47960;SDS011;33721;48.852;9.936;2022-10-12T04:52:30;49.47;;;15.98;;
47960;SDS011;33721;48.852;9.936;2022-10-12T04:54:56;41.28;;;15.38;;
47960;SDS011;33721;48.852;9.936;2022-10-12T04:57:21;58.95;;;15.07;;
47960;SDS011;33721;48.852;9.936;2022-10-12T04:59:47;39.88;;;17.83;;
47960;SDS011;33721;48.852;9.936;2022-10-12T05:02:13;32.30;;;16.20;;
47960;SDS011;33721;48.852;9.936;2022-10-12T05:04:39;35.45;;;16.67;;
47960;SDS011;33721;48.852;9.936;2022-10-12T05:07:04;36.38;;;17.77;;
47960;SDS011;33721;48.852;9.936;2022-10-12T05:09:30;38.03;;;18.08;;
47960;SDS011;33721;48.852;9.936;2022-10-12T05:11:56;38.95;;;17.33;;
47960;SDS011;33721;48.852;9.936;2022-10-12T05:14:21;44.70;;;17.40;;
47960;SDS011;33721;48.852;9.936;2022-10-12T05:16:47;43.30;;;19.75;;
47960;SDS011;33721;48.852;9.936;2022-10-12T05:19:13;198.55;;;21.42;;
47960;SDS011;33721;48.852;9.936;2022-10-12T05:21:38;46.03;;;17.65;;
47960;SDS011;33721;48.852;9.936;2022-10-12T05:24:05;93.95;;;16.75;;
47960;SDS011;33721;48.852;9.936;2022-10-12T05:26:31;54.67;;;15.27;;
47960;SDS011;33721;48.852;9.936;2022-10-12T05:28:56;390.33;;;20.30;;
47960;SDS011;33721;48.852;9.936;2022-10-12T05:31:22;45.03;;;14.38;;
47960;SDS011;33721;48.852;9.936;2022-10-12T05:33:48;158.88;;;16.85;;
47960;SDS011;33721;48.852;9.936;2022-10-12T05:36:13;58.65;;;15.90;;
47960;SDS011;33721;48.852;9.936;2022-10-12T05:38:39;123.55;;;17.20;;
47960;SDS011;33721;48.852;9.936;2022-10-12T05:41:05;278.30;;;18.00;;
47960;SDS011;33721;48.852;9.936;2022-10-12T05:43:30;35.53;;;15.52;;
47960;SDS011;33721;48.852;9.936;2022-10-12T05:45:56;28.98;;;14.10;;
47960;SDS011;33721;48.852;9.936;2022-10-12T05:48:22;35.08;;;16.73;;
47960;SDS011;33721;48.852;9.936;2022-10-12T05:50:50;44.85;;;15.35;;
47960;SDS011;33721;48.852;9.936;2022-10-12T05:53:17;135.63;;;16.33;;
47960;SDS011;33721;48.852;9.936;2022-10-12T05:55:52;31.83;;;16.10;;
47960;SDS011;33721;48.852;9.936;2022-10-12T05:58:19;46.67;;;19.17;;
47960;SDS011;33721;48.852;9.936;2022-10-12T06:00:44;55.20;;;19.25;;
47960;SDS011;33721;48.852;9.936;2022-10-12T06:03:10;87.28;;;17.25;;
47960;SDS011;33721;48.852;9.936;2022-10-12T06:05:36;93.18;;;17.33;;
47960;SDS011;33721;48.852;9.936;2022-10-12T06:08:01;53.72;;;17.70;;
47960;SDS011;33721;48.852;9.936;2022-10-12T06:10:27;51.45;;;17.10;;
47960;SDS011;33721;48.852;9.936;2022-10-12T06:12:53;47.15;;;17.05;;
47960;SDS011;33721;48.852;9.936;2022-10-12T06:15:18;35.22;;;16.08;;
47960;SDS011;33721;48.852;9.936;2022-10-12T06:17:44;35.78;;;17.13;;
47960;SDS011;33721;48.852;9.936;2022-10-12T06:20:10;161.85;;;20.30;;
47960;SDS011;33721;48.852;9.936;2022-10-12T06:22:35;84.88;;;17.38;;
47960;SDS011;33721;48.852;9.936;2022-10-12T06:25:01;68.00;;;17.05;;
47960;SDS011;33721;48.852;9.936;2022-10-12T06:27:27;340.48;;;20.25;;
47960;SDS011;33721;48.852;9.936;2022-10-12T06:29:52;80.88;;;16.80;;
47960;SDS011;33721;48.852;9.936;2022-10-12T06:32:18;30.73;;;16.13;;
47960;SDS011;33721;48.852;9.936;2022-10-12T06:34:43;76.93;;;16.35;;
47960;SDS011;33721;48.852;9.936;2022-10-12T06:37:09;142.00;;;18.75;;
47960;SDS011;33721;48.852;9.936;2022-10-12T06:39:35;98.22;;;18.10;;
47960;SDS011;33721;48.852;9.936;2022-10-12T06:42:01;53.65;;;17.90;;
47960;SDS011;33721;48.852;9.936;2022-10-12T06:44:26;88.35;;;17.98;;
47960;SDS011;33721;48.852;9.936;2022-10-12T06:46:52;196.45;;;19.85;;
47960;SDS011;33721;48.852;9.936;2022-10-12T06:49:18;187.80;;;18.55;;
47960;SDS011;33721;48.852;9.936;2022-10-12T06:51:43;66.38;;;16.77;;
47960;SDS011;33721;48.852;9.936;2022-10-12T06:54:09;183.85;;;18.27;;
47960;SDS011;33721;48.852;9.936;2022-10-12T06:56:35;118.35;;;18.02;;
47960;SDS011;33721;48.852;9.936;2022-10-12T06:59:02;55.42;;;16.15;;
47960;SDS011;33721;48.852;9.936;2022-10-12T07:01:28;175.45;;;18.13;;
47960;SDS011;33721;48.852;9.936;2022-10-12T07:03:53;287.38;;;20.42;;
47960;SDS011;33721;48.852;9.936;2022-10-12T07:06:19;196.23;;;19.17;;
47960;SDS011;33721;48.852;9.936;2022-10-12T07:08:44;84.88;;;18.20;;
47960;SDS011;33721;48.852;9.936;2022-10-12T07:11:11;43.20;;;16.02;;
47960;SDS011;33721;48.852;9.936;2022-10-12T07:13:37;48.53;;;18.70;;
47960;SDS011;33721;48.852;9.936;2022-10-12T07:16:03;30.85;;;16.67;;
47960;SDS011;33721;48.852;9.936;2022-10-12T07:18:29;35.72;;;17.23;;
47960;SDS011;33721;48.852;9.936;2022-10-12T07:20:55;35.58;;;17.83;;
47960;SDS011;33721;48.852;9.936;2022-10-12T07:23:23;34.47;;;17.52;;
47960;SDS011;33721;48.852;9.936;2022-10-12T07:25:50;35.05;;;16.95;;
47960;SDS011;33721;48.852;9.936;2022-10-12T07:28:16;41.30;;;17.35;;
47960;SDS011;33721;48.852;9.936;2022-10-12T07:30:43;35.92;;;19.70;;
47960;SDS011;33721;48.852;9.936;2022-10-12T07:33:09;36.72;;;18.52;;
47960;SDS011;33721;48.852;9.936;2022-10-12T07:35:35;37.42;;;17.17;;
47960;SDS011;33721;48.852;9.936;2022-10-12T07:38:01;33.83;;;17.23;;
47960;SDS011;33721;48.852;9.936;2022-10-12T07:40:27;33.45;;;17.05;;
47960;SDS011;33721;48.852;9.936;2022-10-12T07:42:53;35.25;;;18.13;;
47960;SDS011;33721;48.852;9.936;2022-10-12T07:45:19;34.13;;;18.20;;
47960;SDS011;33721;48.852;9.936;2022-10-12T07:47:45;35.25;;;17.40;;
47960;SDS011;33721;48.852;9.936;2022-10-12T07:50:11;35.10;;;16.90;;
47960;SDS011;33721;48.852;9.936;2022-10-12T07:52:38;36.13;;;18.75;;
47960;SDS011;33721;48.852;9.936;2022-10-12T07:55:04;33.75;;;17.35;;
47960;SDS011;33721;48.852;9.936;2022-10-12T07:57:31;30.67;;;16.88;;
47960;SDS011;33721;48.852;9.936;2022-10-12T07:59:56;35.33;;;18.17;;
47960;SDS011;33721;48.852;9.936;2022-10-12T08:02:22;33.65;;;16.92;;
47960;SDS011;33721;48.852;9.936;2022-10-12T08:04:47;40.30;;;18.58;;
47960;SDS011;33721;48.852;9.936;2022-10-12T08:07:13;35.50;;;19.08;;
47960;SDS011;33721;48.852;9.936;2022-10-12T08:09:39;39.92;;;22.20;;
47960;SDS011;33721;48.852;9.936;2022-10-12T08:12:04;45.10;;;22.63;;
47960;SDS011;33721;48.852;9.936;2022-10-12T08:14:31;43.67;;;20.30;;
47960;SDS011;33721;48.852;9.936;2022-10-12T08:16:56;46.00;;;20.08;;
47960;SDS011;33721;48.852;9.936;2022-10-12T08:19:22;53.42;;;21.92;;
47960;SDS011;33721;48.852;9.936;2022-10-12T08:21:48;40.25;;;19.48;;
47960;SDS011;33721;48.852;9.936;2022-10-12T08:24:14;39.10;;;19.02;;
47960;SDS011;33721;48.852;9.936;2022-10-12T08:26:39;50.40;;;21.98;;
47960;SDS011;33721;48.852;9.936;2022-10-12T08:29:05;43.70;;;21.90;;
47960;SDS011;33721;48.852;9.936;2022-10-12T08:31:32;41.72;;;19.10;;
47960;SDS011;33721;48.852;9.936;2022-10-12T08:33:58;44.35;;;21.08;;
47960;SDS011;33721;48.852;9.936;2022-10-12T08:36:25;44.90;;;19.48;;
47960;SDS011;33721;48.852;9.936;2022-10-12T08:38:51;45.03;;;20.58;;
47960;SDS011;33721;48.852;9.936;2022-10-12T08:46:46;39.75;;;19.25;;
47960;SDS011;33721;48.852;9.936;2022-10-12T08:49:17;38.97;;;18.00;;
47960;SDS011;33721;48.852;9.936;2022-10-12T08:51:53;38.50;;;17.40;;
47960;SDS011;33721;48.852;9.936;2022-10-12T08:54:21;35.85;;;17.60;;
47960;SDS011;33721;48.852;9.936;2022-10-12T08:56:53;41.58;;;18.73;;
47960;SDS011;33721;48.852;9.936;2022-10-12T08:59:19;36.60;;;18.15;;
47960;SDS011;33721;48.852;9.936;2022-10-12T09:04:55;45.10;;;18.40;;
47960;SDS011;33721;48.852;9.936;2022-10-12T09:07:41;41.35;;;19.30;;
47960;SDS011;33721;48.852;9.936;2022-10-12T09:10:25;44.95;;;19.17;;
47960;SDS011;33721;48.852;9.936;2022-10-12T09:15:57;40.38;;;19.55;;
47960;SDS011;33721;48.852;9.936;2022-10-12T09:18:39;49.10;;;20.73;;
47960;SDS011;33721;48.852;9.936;2022-10-12T09:21:07;43.92;;;19.85;;
47960;SDS011;33721;48.852;9.936;2022-10-12T09:23:41;45.85;;;19.42;;
47960;SDS011;33721;48.852;9.936;2022-10-12T09:26:18;44.00;;;19.25;;
47960;SDS011;33721;48.852;9.936;2022-10-12T09:28:55;44.88;;;18.27;;
47960;SDS011;33721;48.852;9.936;2022-10-12T09:34:14;44.88;;;19.85;;
47960;SDS011;33721;48.852;9.936;2022-10-12T09:36:40;43.97;;;20.08;;
47960;SDS011;33721;48.852;9.936;2022-10-12T09:39:10;40.17;;;19.73;;
47960;SDS011;33721;48.852;9.936;2022-10-12T09:41:42;46.17;;;19.42;;
47960;SDS011;33721;48.852;9.936;2022-10-12T09:44:18;45.20;;;18.17;;
47960;SDS011;33721;48.852;9.936;2022-10-12T09:47:06;42.97;;;19.20;;
47960;SDS011;33721;48.852;9.936;2022-10-12T09:49:48;48.38;;;20.05;;
47960;SDS011;33721;48.852;9.936;2022-10-12T09:52:16;38.53;;;17.95;;
47960;SDS011;33721;48.852;9.936;2022-10-12T09:54:45;40.25;;;18.77;;
47960;SDS011;33721;48.852;9.936;2022-10-12T09:57:24;47.20;;;19.70;;
47960;SDS011;33721;48.852;9.936;2022-10-12T10:00:05;45.03;;;20.65;;
47960;SDS011;33721;48.852;9.936;2022-10-12T10:02:51;44.22;;;20.45;;
47960;SDS011;33721;48.852;9.936;2022-10-12T10:07:49;46.70;;;19.50;;
47960;SDS011;33721;48.852;9.936;2022-10-12T10:10:20;43.40;;;19.70;;
47960;SDS011;33721;48.852;9.936;2022-10-12T10:12:51;45.75;;;19.30;;
47960;SDS011;33721;48.852;9.936;2022-10-12T10:15:22;47.85;;;20.23;;
47960;SDS011;33721;48.852;9.936;2022-10-12T10:17:57;47.75;;;21.48;;
47960;SDS011;33721;48.852;9.936;2022-10-12T10:20:29;45.80;;;20.58;;
47960;SDS011;33721;48.852;9.936;2022-10-12T10:25:56;47.45;;;20.30;;
47960;SDS011;33721;48.852;9.936;2022-10-12T10:28:32;48.97;;;21.05;;
47960;SDS011;33721;48.852;9.936;2022-10-12T10:33:32;43.83;;;20.38;;
47960;SDS011;33721;48.852;9.936;2022-10-12T10:36:00;43.20;;;20.17;;
47960;SDS011;33721;48.852;9.936;2022-10-12T10:38:32;45.00;;;21.23;;
47960;SDS011;33721;48.852;9.936;2022-10-12T10:41:20;41.42;;;18.48;;
47960;SDS011;33721;48.852;9.936;2022-10-12T10:43:51;41.38;;;18.85;;
47960;SDS011;33721;48.852;9.936;2022-10-12T10:46:21;39.75;;;19.27;;
47960;SDS011;33721;48.852;9.936;2022-10-12T10:48:51;35.80;;;15.68;;
47960;SDS011;33721;48.852;9.936;2022-10-12T10:51:21;39.15;;;16.02;;
47960;SDS011;33721;48.852;9.936;2022-10-12T10:54:11;42.00;;;19.08;;
47960;SDS011;33721;48.852;9.936;2022-10-12T10:56:52;42.35;;;16.83;;
47960;SDS011;33721;48.852;9.936;2022-10-12T10:59:29;26.80;;;12.93;;
47960;SDS011;33721;48.852;9.936;2022-10-12T11:02:18;30.60;;;12.40;;
47960;SDS011;33721;48.852;9.936;2022-10-12T11:05:02;30.85;;;13.70;;
47960;SDS011;33721;48.852;9.936;2022-10-12T11:10:20;31.85;;;14.20;;
47960;SDS011;33721;48.852;9.936;2022-10-12T11:13:02;33.58;;;14.30;;
47960;SDS011;33721;48.852;9.936;2022-10-12T11:15:43;31.73;;;13.93;;
47960;SDS011;33721;48.852;9.936;2022-10-12T11:18:18;34.85;;;14.65;;
47960;SDS011;33721;48.852;9.936;2022-10-12T11:21:03;36.75;;;14.70;;
47960;SDS011;33721;48.852;9.936;2022-10-12T11:23:52;31.15;;;14.88;;
47960;SDS011;33721;48.852;9.936;2022-10-12T11:28:55;33.55;;;14.52;;
47960;SDS011;33721;48.852;9.936;2022-10-12T11:31:25;33.72;;;12.85;;
47960;SDS011;33721;48.852;9.936;2022-10-12T11:33:53;32.33;;;14.77;;
47960;SDS011;33721;48.852;9.936;2022-10-12T11:36:23;39.20;;;15.35;;
47960;SDS011;33721;48.852;9.936;2022-10-12T11:38:56;38.55;;;14.25;;
47960;SDS011;33721;48.852;9.936;2022-10-12T11:44:23;30.33;;;12.43;;
47960;SDS011;33721;48.852;9.936;2022-10-12T11:47:07;40.22;;;14.52;;
47960;SDS011;33721;48.852;9.936;2022-10-12T11:49:43;42.95;;;15.50;;
47960;SDS011;33721;48.852;9.936;2022-10-12T11:52:18;35.17;;;14.30;;
47960;SDS011;33721;48.852;9.936;2022-10-12T11:57:20;36.17;;;15.15;;
47960;SDS011;33721;48.852;9.936;2022-10-12T11:59:53;29.63;;;14.07;;
47960;SDS011;33721;48.852;9.936;2022-10-12T12:02:31;36.15;;;14.63;;
47960;SDS011;33721;48.852;9.936;2022-10-12T12:05:12;35.78;;;14.65;;
47960;SDS011;33721;48.852;9.936;2022-10-12T12:15:39;35.00;;;13.63;;
47960;SDS011;33721;48.852;9.936;2022-10-12T12:18:20;30.63;;;12.77;;
47960;SDS011;33721;48.852;9.936;2022-10-12T12:26:16;33.25;;;15.13;;
47960;SDS011;33721;48.852;9.936;2022-10-12T12:28:45;32.90;;;13.55;;
47960;SDS011;33721;48.852;9.936;2022-10-12T12:31:36;33.10;;;14.98;;
47960;SDS011;33721;48.852;9.936;2022-10-12T12:34:14;38.15;;;15.73;;
47960;SDS011;33721;48.852;9.936;2022-10-12T12:36:42;42.47;;;14.75;;
47960;SDS011;33721;48.852;9.936;2022-10-12T12:39:29;33.90;;;14.88;;
47960;SDS011;33721;48.852;9.936;2022-10-12T12:41:58;33.75;;;14.65;;
47960;SDS011;33721;48.852;9.936;2022-10-12T12:52:16;32.40;;;14.27;;
47960;SDS011;33721;48.852;9.936;2022-10-12T12:54:44;37.13;;;14.60;;
47960;SDS011;33721;48.852;9.936;2022-10-12T12:57:33;34.25;;;13.73;;
47960;SDS011;33721;48.852;9.936;2022-10-12T13:00:20;30.98;;;13.40;;
47960;SDS011;33721;48.852;9.936;2022-10-12T13:03:20;31.08;;;14.57;;
47960;SDS011;33721;48.852;9.936;2022-10-12T13:14:11;35.00;;;13.50;;
47960;SDS011;33721;48.852;9.936;2022-10-12T13:17:03;31.08;;;14.50;;
47960;SDS011;33721;48.852;9.936;2022-10-12T13:19:49;34.53;;;14.00;;
47960;SDS011;33721;48.852;9.936;2022-10-12T13:22:20;31.40;;;13.68;;
47960;SDS011;33721;48.852;9.936;2022-10-12T13:24:53;35.15;;;14.52;;
47960;SDS011;33721;48.852;9.936;2022-10-12T13:27:25;25.70;;;12.85;;
47960;SDS011;33721;48.852;9.936;2022-10-12T13:35:29;39.17;;;14.37;;
47960;SDS011;33721;48.852;9.936;2022-10-12T13:38:05;31.67;;;13.82;;
47960;SDS011;33721;48.852;9.936;2022-10-12T13:40:39;33.42;;;14.48;;
47960;SDS011;33721;48.852;9.936;2022-10-12T13:43:17;30.92;;;13.60;;
47960;SDS011;33721;48.852;9.936;2022-10-12T13:45:47;35.58;;;12.85;;
47960;SDS011;33721;48.852;9.936;2022-10-12T13:48:17;33.13;;;14.07;;
47960;SDS011;33721;48.852;9.936;2022-10-12T13:53:16;31.17;;;13.65;;
47960;SDS011;33721;48.852;9.936;2022-10-12T13:55:41;35.35;;;14.60;;
47960;SDS011;33721;48.852;9.936;2022-10-12T13:58:26;30.77;;;13.98;;
47960;SDS011;33721;48.852;9.936;2022-10-12T14:00:54;33.30;;;14.10;;
47960;SDS011;33721;48.852;9.936;2022-10-12T14:03:23;28.77;;;13.35;;
47960;SDS011;33721;48.852;9.936;2022-10-12T14:05:51;45.33;;;17.88;;
47960;SDS011;33721;48.852;9.936;2022-10-12T14:08:25;34.42;;;14.20;;
47960;SDS011;33721;48.852;9.936;2022-10-12T14:10:52;35.17;;;14.55;;
47960;SDS011;33721;48.852;9.936;2022-10-12T14:13:23;34.30;;;14.00;;
47960;SDS011;33721;48.852;9.936;2022-10-12T14:15:54;33.53;;;13.73;;
47960;SDS011;33721;48.852;9.936;2022-10-12T14:23:58;30.05;;;13.25;;
47960;SDS011;33721;48.852;9.936;2022-10-12T14:26:32;32.63;;;13.57;;
47960;SDS011;33721;48.852;9.936;2022-10-12T14:29:31;21.73;;;10.25;;
47960;SDS011;33721;48.852;9.936;2022-10-12T14:32:35;23.23;;;10.77;;
47960;SDS011;33721;48.852;9.936;2022-10-12T14:45:24;26.00;;;9.63;;
47960;SDS011;33721;48.852;9.936;2022-10-12T14:47:50;24.38;;;10.15;;
47960;SDS011;33721;48.852;9.936;2022-10-12T14:50:17;19.77;;;10.40;;
47960;SDS011;33721;48.852;9.936;2022-10-12T14:52:45;27.00;;;9.93;;
47960;SDS011;33721;48.852;9.936;2022-10-12T14:55:14;27.90;;;10.43;;
47960;SDS011;33721;48.852;9.936;2022-10-12T14:57:45;26.58;;;10.88;;
47960;SDS011;33721;48.852;9.936;2022-10-12T15:00:18;29.13;;;10.25;;
47960;SDS011;33721;48.852;9.936;2022-10-12T15:02:54;22.75;;;10.18;;
47960;SDS011;33721;48.852;9.936;2022-10-12T15:05:21;26.33;;;10.50;;
47960;SDS011;33721;48.852;9.936;2022-10-12T15:07:48;25.20;;;9.77;;
47960;SDS011;33721;48.852;9.936;2022-10-12T15:10:15;24.15;;;10.02;;
47960;SDS011;33721;48.852;9.936;2022-10-12T15:12:42;23.88;;;9.80;;
47960;SDS011;33721;48.852;9.936;2022-10-12T15:15:50;29.02;;;10.45;;
47960;SDS011;33721;48.852;9.936;2022-10-12T15:18:02;27.05;;;10.98;;
47960;SDS011;33721;48.852;9.936;2022-10-12T15:20:28;35.30;;;11.45;;
47960;SDS011;33721;48.852;9.936;2022-10-12T15:22:56;28.85;;;10.25;;
47960;SDS011;33721;48.852;9.936;2022-10-12T15:25:27;27.23;;;10.18;;
47960;SDS011;33721;48.852;9.936;2022-10-12T15:27:59;21.02;;;9.55;;
47960;SDS011;33721;48.852;9.936;2022-10-12T15:30:25;31.85;;;11.27;;
47960;SDS011;33721;48.852;9.936;2022-10-12T15:32:51;24.27;;;10.18;;
47960;SDS011;33721;48.852;9.936;2022-10-12T15:35:20;22.38;;;9.82;;
47960;SDS011;33721;48.852;9.936;2022-10-12T15:37:47;28.65;;;9.88;;
47960;SDS011;33721;48.852;9.936;2022-10-12T15:40:14;24.20;;;9.75;;
47960;SDS011;33721;48.852;9.936;2022-10-12T15:42:41;25.52;;;10.55;;
47960;SDS011;33721;48.852;9.936;2022-10-12T15:47:46;25.90;;;10.70;;
47960;SDS011;33721;48.852;9.936;2022-10-12T15:50:14;23.42;;;10.77;;
47960;SDS011;33721;48.852;9.936;2022-10-12T15:52:40;22.05;;;10.65;;
47960;SDS011;33721;48.852;9.936;2022-10-12T15:55:14;26.98;;;10.68;;
47960;SDS011;33721;48.852;9.936;2022-10-12T15:57:44;27.08;;;11.70;;
47960;SDS011;33721;48.852;9.936;2022-10-12T16:00:10;31.27;;;11.80;;
47960;SDS011;33721;48.852;9.936;2022-10-12T16:02:37;24.17;;;10.13;;
47960;SDS011;33721;48.852;9.936;2022-10-12T16:05:03;25.27;;;9.98;;
47960;SDS011;33721;48.852;9.936;2022-10-12T16:07:34;31.08;;;11.23;;
47960;SDS011;33721;48.852;9.936;2022-10-12T16:10:00;25.38;;;11.75;;
47960;SDS011;33721;48.852;9.936;2022-10-12T16:12:25;29.52;;;12.30;;
47960;SDS011;33721;48.852;9.936;2022-10-12T16:14:51;28.27;;;11.27;;
47960;SDS011;33721;48.852;9.936;2022-10-12T16:17:16;26.30;;;11.48;;
47960;SDS011;33721;48.852;9.936;2022-10-12T16:19:42;27.33;;;11.82;;
47960;SDS011;33721;48.852;9.936;2022-10-12T16:22:08;34.10;;;12.18;;
47960;SDS011;33721;48.852;9.936;2022-10-12T16:24:34;24.85;;;12.80;;
47960;SDS011;33721;48.852;9.936;2022-10-12T16:26:59;27.27;;;12.60;;
47960;SDS011;33721;48.852;9.936;2022-10-12T16:29:25;31.02;;;12.70;;
47960;SDS011;33721;48.852;9.936;2022-10-12T16:31:50;23.17;;;12.32;;
47960;SDS011;33721;48.852;9.936;2022-10-12T16:34:16;32.20;;;13.57;;